createdAt,value
2019-03-31T00:01:51.336Z,50.87
2019-03-31T00:04:19.332Z,51.97
2019-03-31T00:06:47.342Z,54.80
2019-03-31T00:09:15.344Z,46.60
2019-03-31T00:11:43.393Z,46.93
2019-03-31T00:14:11.662Z,46.00
2019-03-31T00:16:39.596Z,49.00
2019-03-31T00:19:07.587Z,51.40
2019-03-31T00:21:35.547Z,48.00
2019-03-31T00:24:03.638Z,51.93
2019-03-31T00:26:31.575Z,47.67
2019-03-31T00:28:59.522Z,53.67
2019-03-31T00:31:27.457Z,49.23
2019-03-31T00:33:55.442Z,52.93
2019-03-31T00:36:23.363Z,47.73
2019-03-31T00:38:51.372Z,55.20
2019-03-31T00:41:19.302Z,52.27
2019-03-31T00:43:47.318Z,55.57
2019-03-31T00:46:15.911Z,55.63
2019-03-31T00:48:43.935Z,53.60
2019-03-31T00:51:11.851Z,58.83
2019-03-31T00:53:39.867Z,48.27
2019-03-31T00:56:07.801Z,48.40
2019-03-31T00:58:35.827Z,53.27
2019-03-31T01:01:35.413Z,52.90
2019-03-31T01:03:51.586Z,57.13
2019-03-31T01:06:21.427Z,63.00
2019-03-31T01:08:49.429Z,60.87
2019-03-31T01:11:21.807Z,60.37
2019-03-31T01:13:49.808Z,66.47
2019-03-31T01:16:18.341Z,65.17
2019-03-31T01:18:46.307Z,60.83
2019-03-31T01:21:14.447Z,60.73
2019-03-31T01:23:42.527Z,54.13
2019-03-31T01:26:10.777Z,54.40
2019-03-31T01:28:38.807Z,58.50
2019-03-31T01:31:06.862Z,66.40
2019-03-31T01:33:35.260Z,66.27
2019-03-31T01:36:03.413Z,64.93
2019-03-31T01:38:31.497Z,60.70
2019-03-31T01:40:59.452Z,63.70
2019-03-31T01:43:29.699Z,63.83
2019-03-31T01:45:58.420Z,65.70
2019-03-31T01:48:26.406Z,60.87
2019-03-31T01:50:54.332Z,66.47
2019-03-31T01:53:22.307Z,63.37
2019-03-31T01:55:50.235Z,67.77
2019-03-31T01:58:18.273Z,69.80
2019-03-31T02:00:51.322Z,65.73
2019-03-31T02:03:19.315Z,71.50
2019-03-31T02:05:47.232Z,64.87
2019-03-31T02:08:15.270Z,61.47
2019-03-31T02:10:43.243Z,60.17
2019-03-31T02:13:11.186Z,67.63
2019-03-31T02:15:39.207Z,68.23
2019-03-31T02:18:07.247Z,65.87
2019-03-31T02:20:35.221Z,67.87
2019-03-31T02:23:03.256Z,76.93
2019-03-31T02:25:31.287Z,72.97
2019-03-31T02:27:59.231Z,65.67
2019-03-31T02:30:27.564Z,64.60
2019-03-31T02:32:55.505Z,62.57
2019-03-31T02:35:23.487Z,76.07
2019-03-31T02:37:51.416Z,59.87
2019-03-31T02:40:19.392Z,65.73
2019-03-31T02:42:47.326Z,66.37
2019-03-31T02:45:15.320Z,64.40
2019-03-31T02:47:43.233Z,65.13
2019-03-31T02:50:17.300Z,61.77
2019-03-31T02:52:45.238Z,68.10
2019-03-31T02:55:13.220Z,71.53
2019-03-31T02:57:41.387Z,72.27
2019-03-31T03:00:09.463Z,63.67
2019-03-31T03:02:42.214Z,71.10
2019-03-31T03:05:19.588Z,80.50
2019-03-31T03:07:39.951Z,71.47
2019-03-31T03:10:08.784Z,67.80
2019-03-31T03:12:39.506Z,77.27
2019-03-31T03:15:07.604Z,78.57
2019-03-31T03:17:35.548Z,79.93
2019-03-31T03:20:03.834Z,78.23
2019-03-31T03:22:31.742Z,77.77
2019-03-31T03:24:59.733Z,80.93
2019-03-31T03:27:27.677Z,81.33
2019-03-31T03:29:56.150Z,81.83
2019-03-31T03:32:24.138Z,83.73
2019-03-31T03:34:52.222Z,76.03
2019-03-31T03:37:20.174Z,79.60
2019-03-31T03:39:48.154Z,79.93
2019-03-31T03:42:16.104Z,75.40
2019-03-31T03:44:44.035Z,77.40
2019-03-31T03:47:12.029Z,74.00
2019-03-31T03:49:40.046Z,79.23
2019-03-31T03:52:08.162Z,86.00
2019-03-31T03:54:36.178Z,86.27
2019-03-31T03:57:05.199Z,79.63
2019-03-31T03:59:33.132Z,88.27
2019-03-31T04:02:01.123Z,81.37
2019-03-31T04:04:29.069Z,81.80
2019-03-31T04:06:57.089Z,79.40
2019-03-31T04:09:25.108Z,74.70
2019-03-31T04:11:53.083Z,79.57
2019-03-31T04:14:21.019Z,76.43
2019-03-31T04:16:48.985Z,72.87
2019-03-31T04:19:16.928Z,76.70
2019-03-31T04:21:44.910Z,83.67
2019-03-31T04:24:12.817Z,81.50
2019-03-31T04:26:40.782Z,74.70
2019-03-31T04:29:08.725Z,77.90
2019-03-31T04:31:36.702Z,83.90
2019-03-31T04:34:04.651Z,79.07
2019-03-31T04:36:32.718Z,73.40
2019-03-31T04:39:00.947Z,76.40
2019-03-31T04:41:29.157Z,74.23
2019-03-31T04:43:57.087Z,71.23
2019-03-31T04:46:25.067Z,79.70
2019-03-31T04:48:53.006Z,75.20
2019-03-31T04:51:20.971Z,84.23
2019-03-31T04:53:48.962Z,79.00
2019-03-31T04:56:16.962Z,76.67
2019-03-31T04:58:45.007Z,75.70
2019-03-31T05:01:12.966Z,78.47
2019-03-31T05:03:40.917Z,73.27
2019-03-31T05:06:08.922Z,75.83
2019-03-31T05:08:36.930Z,73.97
2019-03-31T05:11:04.997Z,82.83
2019-03-31T05:13:32.962Z,84.30
2019-03-31T05:16:00.977Z,76.87
2019-03-31T05:18:29.051Z,82.80
2019-03-31T05:20:57.037Z,90.13
2019-03-31T05:23:24.973Z,88.23
2019-03-31T05:25:52.957Z,78.63
2019-03-31T05:28:20.903Z,71.13
2019-03-31T05:30:48.947Z,82.53
2019-03-31T05:33:16.964Z,87.33
2019-03-31T05:35:44.931Z,74.97
2019-03-31T05:38:12.952Z,82.80
2019-03-31T05:40:40.978Z,65.10
2019-03-31T05:43:08.974Z,75.43
2019-03-31T05:45:36.951Z,63.20
2019-03-31T05:48:04.977Z,61.03
2019-03-31T05:50:32.892Z,67.00
2019-03-31T05:53:00.897Z,67.50
2019-03-31T05:55:28.826Z,71.10
2019-03-31T05:57:57.617Z,63.43
2019-03-31T06:00:41.883Z,65.47
2019-03-31T06:03:09.903Z,62.13
2019-03-31T06:05:37.851Z,68.00
2019-03-31T06:08:05.914Z,69.27
2019-03-31T06:10:33.826Z,57.17
2019-03-31T06:13:01.879Z,63.60
2019-03-31T06:15:30.448Z,62.30
2019-03-31T06:17:58.427Z,66.20
2019-03-31T06:20:26.386Z,69.60
2019-03-31T06:22:54.453Z,54.67
2019-03-31T06:25:22.534Z,53.33
2019-03-31T06:27:50.515Z,56.20
2019-03-31T06:30:18.619Z,59.33
2019-03-31T06:32:46.667Z,53.27
2019-03-31T06:35:14.637Z,47.67
2019-03-31T06:37:42.607Z,50.13
2019-03-31T06:40:10.652Z,52.60
2019-03-31T06:42:38.656Z,51.60
2019-03-31T06:45:07.188Z,52.40
2019-03-31T06:47:35.187Z,48.43
2019-03-31T06:50:03.903Z,48.87
2019-03-31T06:52:31.971Z,47.67
2019-03-31T06:54:59.887Z,47.63
2019-03-31T06:57:27.933Z,49.07
2019-03-31T06:59:55.902Z,47.10
2019-03-31T07:02:23.931Z,46.47
2019-03-31T07:05:00.804Z,46.73
2019-03-31T07:07:23.859Z,47.30
2019-03-31T07:09:51.572Z,45.10
2019-03-31T07:12:19.572Z,50.63
2019-03-31T07:14:47.572Z,42.93
2019-03-31T07:17:15.636Z,52.00
2019-03-31T07:19:43.686Z,41.73
2019-03-31T07:22:11.722Z,42.50
2019-03-31T07:24:39.695Z,45.47
2019-03-31T07:27:07.759Z,43.83
2019-03-31T07:29:35.692Z,43.53
2019-03-31T07:32:04.111Z,42.07
2019-03-31T07:34:32.156Z,39.53
2019-03-31T07:37:00.132Z,38.57
2019-03-31T07:39:29.572Z,38.33
2019-03-31T07:41:59.762Z,41.47
2019-03-31T07:44:28.171Z,41.13
2019-03-31T07:46:58.331Z,42.50
2019-03-31T07:49:26.368Z,40.03
2019-03-31T07:51:54.293Z,38.33
2019-03-31T07:54:22.902Z,33.47
2019-03-31T07:56:51.725Z,33.63
2019-03-31T07:59:19.761Z,36.33
2019-03-31T08:01:48.381Z,38.17
2019-03-31T08:04:16.387Z,34.20
2019-03-31T08:06:44.357Z,29.63
2019-03-31T08:09:12.418Z,30.77
2019-03-31T08:11:40.366Z,31.10
2019-03-31T08:14:08.487Z,30.00
2019-03-31T08:16:36.462Z,24.30
2019-03-31T08:19:04.436Z,22.87
2019-03-31T08:21:32.392Z,22.03
2019-03-31T08:24:00.477Z,19.63
2019-03-31T08:26:28.840Z,21.03
2019-03-31T08:28:58.597Z,19.77
2019-03-31T08:31:26.727Z,20.90
2019-03-31T08:33:54.717Z,16.70
2019-03-31T08:36:22.667Z,16.30
2019-03-31T08:38:50.687Z,13.30
2019-03-31T08:41:18.769Z,10.67
2019-03-31T08:43:47.167Z,14.90
2019-03-31T08:46:15.601Z,11.83
2019-03-31T08:48:44.245Z,14.23
2019-03-31T08:51:12.257Z,8.73
2019-03-31T08:53:42.481Z,12.33
2019-03-31T08:56:10.432Z,8.67
2019-03-31T08:58:39.108Z,8.83
2019-03-31T09:01:10.826Z,8.23
2019-03-31T09:03:38.857Z,8.67
2019-03-31T09:06:06.793Z,7.63
2019-03-31T09:08:34.786Z,7.77
2019-03-31T09:11:04.354Z,7.73
2019-03-31T09:13:32.317Z,8.47
2019-03-31T09:16:00.429Z,8.63
2019-03-31T09:18:28.438Z,6.50
2019-03-31T09:20:56.342Z,7.80
2019-03-31T09:23:24.355Z,12.07
2019-03-31T09:25:53.293Z,8.33
2019-03-31T09:28:21.267Z,7.77
2019-03-31T09:30:49.392Z,8.60
2019-03-31T09:33:17.362Z,9.50
2019-03-31T09:35:45.327Z,15.43
2019-03-31T09:38:13.328Z,13.83
2019-03-31T09:40:41.349Z,11.10
2019-03-31T09:43:09.455Z,15.93
2019-03-31T09:45:37.535Z,10.30
2019-03-31T09:48:05.492Z,12.20
2019-03-31T09:50:33.512Z,10.07
2019-03-31T09:53:01.552Z,7.77
2019-03-31T09:55:29.547Z,9.90
2019-03-31T09:57:57.622Z,10.10
2019-03-31T10:00:45.764Z,9.30
2019-03-31T10:03:13.853Z,18.93
2019-03-31T10:05:43.168Z,9.87
2019-03-31T10:08:11.197Z,8.70
2019-03-31T10:10:39.462Z,10.77
2019-03-31T10:13:07.607Z,8.47
2019-03-31T10:15:35.769Z,10.80
2019-03-31T10:18:03.812Z,12.20
2019-03-31T10:20:32.192Z,10.67
2019-03-31T10:23:00.153Z,17.27
2019-03-31T10:25:28.179Z,12.90
2019-03-31T10:27:56.217Z,11.07
2019-03-31T10:30:42.525Z,10.93
2019-03-31T10:33:10.473Z,14.73
2019-03-31T10:35:38.577Z,12.50
2019-03-31T10:38:08.217Z,12.23
2019-03-31T10:40:36.241Z,11.20
2019-03-31T10:43:04.337Z,12.40
2019-03-31T10:45:32.358Z,15.60
2019-03-31T10:48:00.335Z,14.30
2019-03-31T10:50:28.321Z,10.83
2019-03-31T10:52:56.664Z,12.07
2019-03-31T10:55:27.062Z,12.90
2019-03-31T10:57:55.262Z,13.03
2019-03-31T11:00:34.804Z,9.73
2019-03-31T11:03:03.666Z,13.03
2019-03-31T11:05:31.812Z,9.87
2019-03-31T11:07:59.871Z,9.63
2019-03-31T11:10:28.655Z,11.70
2019-03-31T11:12:56.632Z,9.50
2019-03-31T11:15:25.221Z,8.23
2019-03-31T11:17:53.446Z,9.17
2019-03-31T11:20:21.492Z,12.50
2019-03-31T11:22:56.907Z,8.80
2019-03-31T11:25:29.125Z,9.77
2019-03-31T11:27:54.896Z,10.27
2019-03-31T11:30:22.986Z,9.40
2019-03-31T11:32:50.928Z,9.43
2019-03-31T11:35:18.967Z,8.03
2019-03-31T11:37:46.974Z,6.40
2019-03-31T11:40:15.285Z,9.50
2019-03-31T11:42:43.684Z,6.60
2019-03-31T11:45:12.118Z,7.27
2019-03-31T11:47:40.217Z,5.57
2019-03-31T11:50:11.443Z,7.97
2019-03-31T11:52:40.021Z,7.70
2019-03-31T11:55:08.290Z,8.13
2019-03-31T11:57:37.376Z,8.27
2019-03-31T12:00:08.587Z,8.97
2019-03-31T12:02:36.708Z,7.47
2019-03-31T12:05:06.329Z,6.70
2019-03-31T12:07:46.003Z,6.77
2019-03-31T12:10:05.466Z,5.87
2019-03-31T12:12:33.867Z,7.37
2019-03-31T12:15:01.973Z,7.70
2019-03-31T12:17:30.066Z,5.90
2019-03-31T12:19:58.099Z,6.03
2019-03-31T12:22:26.217Z,4.40
2019-03-31T12:24:54.251Z,6.73
2019-03-31T12:27:22.371Z,7.07
2019-03-31T12:29:50.444Z,5.70
2019-03-31T12:32:18.731Z,7.00
2019-03-31T12:34:46.787Z,9.00
2019-03-31T12:37:14.861Z,6.40
2019-03-31T12:39:42.987Z,6.87
2019-03-31T12:42:11.071Z,6.17
2019-03-31T12:44:39.437Z,7.10
2019-03-31T12:47:07.611Z,5.33
2019-03-31T12:49:35.850Z,5.07
2019-03-31T12:52:03.950Z,8.60
2019-03-31T12:54:32.096Z,9.00
2019-03-31T12:57:00.430Z,6.77
2019-03-31T12:59:28.542Z,7.03
2019-03-31T13:01:56.732Z,6.80
2019-03-31T13:04:25.058Z,6.00
2019-03-31T13:06:53.406Z,3.83
2019-03-31T13:09:21.591Z,7.77
2019-03-31T13:11:50.537Z,8.97
2019-03-31T13:14:18.951Z,8.87
2019-03-31T13:16:49.546Z,6.30
2019-03-31T13:19:17.697Z,10.20
2019-03-31T13:21:45.849Z,8.80
2019-03-31T13:24:14.035Z,5.37
2019-03-31T13:26:42.159Z,9.03
2019-03-31T13:29:10.404Z,5.17
2019-03-31T13:31:38.702Z,3.80
2019-03-31T13:34:09.042Z,4.30
2019-03-31T13:36:37.093Z,5.57
2019-03-31T13:39:07.391Z,7.53
2019-03-31T13:41:35.492Z,6.87
2019-03-31T13:44:03.772Z,5.47
2019-03-31T13:46:32.006Z,6.30
2019-03-31T13:49:00.241Z,6.10
2019-03-31T13:51:28.282Z,4.63
2019-03-31T13:53:56.382Z,7.37
2019-03-31T13:56:24.422Z,7.53
2019-03-31T13:58:52.856Z,7.27
2019-03-31T14:01:21.118Z,6.80
2019-03-31T14:03:49.357Z,7.13
2019-03-31T14:06:17.752Z,7.50
2019-03-31T14:08:45.959Z,9.13
2019-03-31T14:11:14.417Z,6.10
2019-03-31T14:13:42.752Z,6.53
2019-03-31T14:16:10.988Z,8.63
2019-03-31T14:18:39.307Z,8.40
2019-03-31T14:21:07.667Z,15.50
2019-03-31T14:23:36.152Z,7.83
2019-03-31T14:26:04.287Z,8.00
2019-03-31T14:28:32.500Z,8.70
2019-03-31T14:31:00.914Z,7.87
2019-03-31T14:33:29.186Z,5.50
2019-03-31T14:35:57.670Z,10.80
2019-03-31T14:38:39.589Z,8.60
2019-03-31T14:40:56.442Z,8.03
2019-03-31T14:43:27.835Z,11.80
2019-03-31T14:45:55.032Z,5.27
2019-03-31T14:48:23.346Z,9.73
2019-03-31T14:50:51.502Z,8.57
2019-03-31T14:53:19.883Z,4.97
2019-03-31T14:55:48.293Z,5.73
2019-03-31T14:58:16.717Z,8.97
2019-03-31T15:00:44.993Z,7.97
2019-03-31T15:03:13.463Z,7.40
2019-03-31T15:05:41.951Z,5.60
2019-03-31T15:08:10.422Z,6.27
2019-03-31T15:10:38.847Z,9.70
2019-03-31T15:13:07.593Z,5.93
2019-03-31T15:15:36.502Z,5.53
2019-03-31T15:18:05.155Z,7.47
2019-03-31T15:20:33.730Z,6.27
2019-03-31T15:23:02.393Z,8.30
2019-03-31T15:25:30.729Z,3.03
2019-03-31T15:27:59.457Z,8.83
2019-03-31T15:30:27.970Z,5.50
2019-03-31T15:32:56.207Z,5.70
2019-03-31T15:35:24.782Z,6.87
2019-03-31T15:37:53.320Z,6.97
2019-03-31T15:40:21.797Z,7.43
2019-03-31T15:42:50.322Z,7.80
2019-03-31T15:45:18.883Z,6.43
2019-03-31T15:47:47.361Z,6.70
2019-03-31T15:50:15.872Z,7.03
2019-03-31T15:52:44.838Z,8.90
2019-03-31T15:55:13.527Z,10.83
2019-03-31T15:57:42.282Z,6.23
2019-03-31T16:00:11.225Z,5.83
2019-03-31T16:02:39.881Z,10.53
2019-03-31T16:05:08.830Z,8.83
2019-03-31T16:07:37.227Z,6.53
2019-03-31T16:10:06.057Z,5.57
2019-03-31T16:12:34.013Z,9.20
2019-03-31T16:15:02.007Z,7.37
2019-03-31T16:17:30.067Z,6.87
2019-03-31T16:19:57.854Z,5.37
2019-03-31T16:22:25.742Z,6.37
2019-03-31T16:24:56.312Z,4.03
2019-03-31T16:27:24.337Z,7.00
2019-03-31T16:29:52.370Z,5.63
2019-03-31T16:32:20.263Z,4.87
2019-03-31T16:34:48.422Z,5.20
2019-03-31T16:37:16.288Z,4.50
2019-03-31T16:39:44.202Z,9.20
2019-03-31T16:42:12.099Z,6.33
2019-03-31T16:44:40.146Z,8.63
2019-03-31T16:47:08.107Z,6.40
2019-03-31T16:49:36.042Z,4.67
2019-03-31T16:52:03.870Z,6.67
2019-03-31T16:54:31.807Z,5.80
2019-03-31T16:56:59.837Z,9.23
2019-03-31T16:59:27.717Z,7.67
2019-03-31T17:01:55.642Z,11.13
2019-03-31T17:04:23.617Z,6.07
2019-03-31T17:06:51.447Z,8.03
2019-03-31T17:09:19.367Z,5.87
2019-03-31T17:11:49.707Z,8.30
2019-03-31T17:14:17.578Z,6.23
2019-03-31T17:16:45.419Z,7.50
2019-03-31T17:19:13.727Z,7.47
2019-03-31T17:21:41.666Z,11.13
2019-03-31T17:24:10.412Z,8.33
2019-03-31T17:26:38.422Z,8.87
2019-03-31T17:29:06.512Z,5.00
2019-03-31T17:31:34.982Z,5.37
2019-03-31T17:34:03.090Z,5.33
2019-03-31T17:36:31.028Z,6.57
2019-03-31T17:39:00.201Z,4.37
2019-03-31T17:41:28.267Z,5.07
2019-03-31T17:43:56.332Z,5.60
2019-03-31T17:46:24.232Z,8.53
2019-03-31T17:48:52.172Z,7.03
2019-03-31T17:51:20.307Z,6.33
2019-03-31T17:53:50.917Z,6.03
2019-03-31T17:56:18.854Z,5.23
2019-03-31T17:58:47.057Z,5.60
2019-03-31T18:01:17.822Z,4.17
2019-03-31T18:03:45.879Z,4.90
2019-03-31T18:06:13.971Z,5.73
2019-03-31T18:08:42.516Z,4.60
2019-03-31T18:11:10.883Z,6.17
2019-03-31T18:13:38.787Z,3.87
2019-03-31T18:16:06.817Z,3.40
2019-03-31T18:18:34.857Z,4.00
2019-03-31T18:21:02.867Z,5.73
2019-03-31T18:23:30.717Z,4.53
2019-03-31T18:25:58.702Z,5.27
2019-03-31T18:28:26.612Z,3.57
2019-03-31T18:30:54.567Z,6.70
2019-03-31T18:33:23.136Z,7.43
2019-03-31T18:35:51.162Z,2.83
2019-03-31T18:38:19.152Z,6.23
2019-03-31T18:40:47.178Z,8.10
2019-03-31T18:43:15.060Z,5.27
2019-03-31T18:45:43.117Z,3.20
2019-03-31T18:48:11.118Z,6.17
2019-03-31T18:50:38.979Z,4.30
2019-03-31T18:53:08.282Z,4.70
2019-03-31T18:55:45.577Z,10.50
2019-03-31T18:58:25.597Z,4.77
2019-03-31T19:01:04.327Z,6.47
2019-03-31T19:03:47.033Z,5.43
2019-03-31T19:06:37.106Z,5.80
2019-03-31T19:09:25.102Z,6.77
2019-03-31T19:12:11.528Z,6.30
2019-03-31T19:14:58.947Z,5.00
2019-03-31T19:18:04.725Z,8.60
2019-03-31T19:20:51.002Z,6.17
2019-03-31T19:23:37.909Z,6.37
2019-03-31T19:26:26.563Z,12.07
2019-03-31T19:29:26.192Z,5.20
2019-03-31T19:32:25.947Z,9.40
2019-03-31T19:35:12.327Z,7.03
2019-03-31T19:38:08.767Z,5.73
2019-03-31T19:41:03.971Z,3.87
2019-03-31T19:43:34.215Z,7.63
2019-03-31T19:46:11.443Z,9.67
2019-03-31T19:49:01.061Z,4.33
2019-03-31T19:52:06.475Z,6.57
2019-03-31T19:54:54.238Z,4.73
2019-03-31T19:57:32.021Z,6.80
2019-03-31T20:00:15.397Z,5.63
2019-03-31T20:03:11.667Z,4.63
2019-03-31T20:06:17.702Z,6.23
2019-03-31T20:08:57.403Z,3.63
2019-03-31T20:11:35.242Z,4.87
2019-03-31T20:14:25.077Z,4.77
2019-03-31T20:17:15.042Z,3.27
2019-03-31T20:19:54.717Z,4.90
2019-03-31T20:22:57.142Z,8.67
2019-03-31T20:25:44.466Z,4.60
2019-03-31T20:28:31.172Z,5.27
2019-03-31T20:31:11.200Z,3.37
2019-03-31T20:34:13.620Z,5.90
2019-03-31T20:37:09.967Z,9.80
2019-03-31T20:39:56.502Z,7.53
2019-03-31T20:42:41.452Z,4.67
2019-03-31T20:45:09.183Z,14.33
2019-03-31T20:47:37.061Z,10.33
2019-03-31T20:50:05.482Z,5.73
2019-03-31T20:52:33.362Z,7.57
2019-03-31T20:55:15.358Z,8.30
2019-03-31T20:57:30.932Z,12.60
2019-03-31T20:59:58.676Z,5.90
2019-03-31T21:02:26.576Z,8.30
2019-03-31T21:04:54.337Z,9.17
2019-03-31T21:07:22.252Z,5.70
2019-03-31T21:09:49.977Z,8.33
2019-03-31T21:12:17.842Z,4.17
2019-03-31T21:14:45.677Z,8.20
2019-03-31T21:17:13.511Z,5.47
2019-03-31T21:19:41.167Z,3.67
2019-03-31T21:22:08.771Z,4.57
2019-03-31T21:24:36.768Z,7.30
2019-03-31T21:27:04.346Z,11.60
2019-03-31T21:29:31.946Z,6.50
2019-03-31T21:32:01.816Z,3.93
2019-03-31T21:34:29.287Z,6.93
2019-03-31T21:36:56.876Z,5.23
2019-03-31T21:39:24.337Z,7.37
2019-03-31T21:41:51.891Z,7.73
2019-03-31T21:44:19.453Z,4.57
2019-03-31T21:46:46.982Z,9.90
2019-03-31T21:49:14.653Z,7.60
2019-03-31T21:51:42.147Z,7.07
2019-03-31T21:54:12.590Z,8.80
2019-03-31T21:56:39.964Z,5.93
2019-03-31T21:59:09.091Z,8.20
2019-03-31T22:01:36.951Z,6.53
2019-03-31T22:04:04.542Z,9.23
2019-03-31T22:06:32.091Z,4.40
2019-03-31T22:08:59.662Z,10.63
2019-03-31T22:11:27.282Z,6.10
2019-03-31T22:13:54.827Z,10.10
2019-03-31T22:16:22.326Z,6.23
2019-03-31T22:18:49.925Z,7.30
2019-03-31T22:21:17.532Z,10.30
2019-03-31T22:23:57.371Z,7.37
2019-03-31T22:26:14.441Z,7.30
2019-03-31T22:28:42.058Z,6.43
2019-03-31T22:31:09.555Z,5.20
2019-03-31T22:33:37.167Z,9.97
2019-03-31T22:36:23.761Z,4.83
2019-03-31T22:38:52.461Z,4.60
2019-03-31T22:41:20.042Z,4.27
2019-03-31T22:43:48.462Z,7.23
2019-03-31T22:46:15.992Z,4.90
2019-03-31T22:48:43.667Z,7.50
2019-03-31T22:51:11.253Z,3.57
2019-03-31T22:53:38.812Z,9.40
2019-03-31T22:56:07.383Z,3.67
2019-03-31T22:58:35.002Z,3.70
2019-03-31T23:01:02.728Z,6.53
2019-03-31T23:03:30.521Z,7.30
2019-03-31T23:05:58.441Z,3.00
2019-03-31T23:08:26.210Z,5.77
2019-03-31T23:10:53.701Z,7.03
2019-03-31T23:13:21.202Z,3.73
2019-03-31T23:15:48.607Z,7.53
2019-03-31T23:18:17.627Z,6.17
2019-03-31T23:20:45.077Z,5.97
2019-03-31T23:23:12.467Z,3.43
2019-03-31T23:25:39.917Z,4.17
2019-03-31T23:28:07.306Z,6.43
2019-03-31T23:30:34.726Z,2.77
2019-03-31T23:33:02.437Z,6.00
2019-03-31T23:35:29.867Z,5.67
2019-03-31T23:37:57.242Z,6.23
2019-03-31T23:40:26.606Z,3.83
2019-03-31T23:42:53.982Z,4.53
2019-03-31T23:45:21.407Z,7.57
2019-03-31T23:47:48.794Z,6.60
2019-03-31T23:50:16.247Z,7.57
2019-03-31T23:52:43.626Z,3.50
2019-03-31T23:55:11.157Z,5.27
2019-03-31T23:57:39.086Z,4.53
